createdAt,value
2023-10-15T00:00:06.502Z,96552.91
2023-10-15T00:03:04.447Z,96557.00
2023-10-15T00:06:01.558Z,96559.41
2023-10-15T00:09:00.984Z,96568.22
2023-10-15T00:11:58.265Z,96564.69
2023-10-15T00:14:55.168Z,96556.47
2023-10-15T00:18:01.441Z,96557.69
2023-10-15T00:21:13.253Z,96561.50
2023-10-15T00:24:12.027Z,96562.59
2023-10-15T00:27:08.900Z,96567.53
2023-10-15T00:30:13.941Z,96567.19
2023-10-15T00:33:13.294Z,96569.00
2023-10-15T00:36:14.819Z,96576.06
2023-10-15T00:39:21.513Z,96574.28
2023-10-15T00:42:18.398Z,96570.84
2023-10-15T00:45:17.262Z,96578.44
2023-10-15T00:48:37.225Z,96579.91
2023-10-15T00:51:34.157Z,96577.06
2023-10-15T00:54:34.584Z,96583.69
2023-10-15T00:57:43.076Z,96581.88
2023-10-15T01:00:52.056Z,96582.19
2023-10-15T01:04:00.507Z,96569.75
2023-10-15T01:07:01.837Z,96579.69
2023-10-15T01:09:58.765Z,96568.44
2023-10-15T01:12:57.647Z,96570.38
2023-10-15T01:16:00.413Z,96559.25
2023-10-15T01:19:00.727Z,96559.91
2023-10-15T01:22:02.984Z,96557.63
2023-10-15T01:25:17.946Z,96551.78
2023-10-15T01:28:14.925Z,96556.63
2023-10-15T01:31:16.403Z,96552.06
2023-10-15T01:34:13.902Z,96556.81
2023-10-15T01:37:19.461Z,96554.97
2023-10-15T01:40:16.511Z,96554.94
2023-10-15T01:43:16.175Z,96547.00
2023-10-15T01:46:24.787Z,96549.97
2023-10-15T01:49:47.981Z,96552.66
2023-10-15T01:52:45.372Z,96561.19
2023-10-15T01:55:54.960Z,96560.06
2023-10-15T01:58:53.308Z,96560.09
2023-10-15T02:01:52.880Z,96563.47
2023-10-15T02:04:49.882Z,96568.56
2023-10-15T02:07:46.868Z,96558.53
2023-10-15T02:10:48.631Z,96561.69
2023-10-15T02:13:48.844Z,96557.72
2023-10-15T02:16:50.469Z,96568.84
2023-10-15T02:19:49.277Z,96563.56
2023-10-15T02:22:48.056Z,96569.16
2023-10-15T02:25:48.266Z,96557.97
2023-10-15T02:28:45.538Z,96557.47
2023-10-15T02:31:44.487Z,96549.50
2023-10-15T02:34:42.012Z,96562.78
2023-10-15T02:37:41.561Z,96560.13
2023-10-15T02:40:58.855Z,96563.81
2023-10-15T02:43:56.867Z,96553.25
2023-10-15T02:47:07.788Z,96567.81
2023-10-15T02:50:05.001Z,96572.59
2023-10-15T02:53:06.353Z,96573.91
2023-10-15T02:56:11.490Z,96581.31
2023-10-15T02:59:09.424Z,96584.19
2023-10-15T03:02:09.872Z,96584.47
2023-10-15T03:05:14.150Z,96588.16
2023-10-15T03:08:26.184Z,96580.94
2023-10-15T03:11:33.643Z,96593.97
2023-10-15T03:14:30.491Z,96592.97
2023-10-15T03:17:30.860Z,96590.25
2023-10-15T03:20:40.393Z,96602.38
2023-10-15T03:23:40.482Z,96599.19
2023-10-15T03:26:37.679Z,96600.84
2023-10-15T03:29:34.636Z,96603.50
2023-10-15T03:32:39.008Z,96600.81
2023-10-15T03:35:40.134Z,96599.91
2023-10-15T03:38:37.202Z,96607.97
2023-10-15T03:41:41.171Z,96607.78
2023-10-15T03:44:48.656Z,96603.72
2023-10-15T03:47:48.321Z,96603.88
2023-10-15T03:50:59.039Z,96612.59
2023-10-15T03:53:59.761Z,96606.56
2023-10-15T03:56:57.604Z,96607.41
2023-10-15T03:59:55.046Z,96608.81
2023-10-15T04:03:30.471Z,96599.88
2023-10-15T04:06:27.383Z,96604.38
2023-10-15T04:09:25.430Z,96599.56
2023-10-15T04:12:22.325Z,96603.19
2023-10-15T04:15:19.301Z,96606.25
2023-10-15T04:18:16.348Z,96599.06
2023-10-15T04:21:17.464Z,96604.06
2023-10-15T04:24:15.602Z,96592.69
2023-10-15T04:27:16.752Z,96590.28
2023-10-15T04:30:15.392Z,96590.94
2023-10-15T04:33:14.687Z,96598.66
2023-10-15T04:36:12.004Z,96594.78
2023-10-15T04:39:14.469Z,96600.97
2023-10-15T04:42:14.374Z,96583.03
2023-10-15T04:45:37.144Z,96582.41
2023-10-15T04:48:37.708Z,96587.63
2023-10-15T04:51:43.957Z,96591.53
2023-10-15T04:54:41.593Z,96590.84
2023-10-15T04:57:40.626Z,96600.19
2023-10-15T05:00:42.666Z,96592.97
2023-10-15T05:03:39.714Z,96592.47
2023-10-15T05:06:36.841Z,96592.31
2023-10-15T05:09:36.110Z,96589.28
2023-10-15T05:12:33.061Z,96588.56
2023-10-15T05:15:29.997Z,96590.88
2023-10-15T05:18:30.863Z,96595.03
2023-10-15T05:21:31.133Z,96586.97
2023-10-15T05:24:28.093Z,96598.28
2023-10-15T05:27:24.978Z,96599.69
2023-10-15T05:30:21.884Z,96595.66
2023-10-15T05:33:19.231Z,96601.75
2023-10-15T05:36:16.148Z,96598.94
2023-10-15T05:39:17.014Z,96602.59
2023-10-15T05:42:14.709Z,96599.59
2023-10-15T05:45:11.730Z,96603.69
2023-10-15T05:48:08.736Z,96603.41
2023-10-15T05:51:06.079Z,96618.25
2023-10-15T05:54:03.275Z,96614.44
2023-10-15T05:57:00.423Z,96628.63
2023-10-15T05:59:57.842Z,96617.84
2023-10-15T06:02:55.666Z,96619.38
2023-10-15T06:05:58.696Z,96625.44
2023-10-15T06:08:57.445Z,96625.50
2023-10-15T06:11:54.358Z,96634.44
2023-10-15T06:14:51.213Z,96627.75
2023-10-15T06:17:48.634Z,96635.72
2023-10-15T06:20:48.850Z,96643.28
2023-10-15T06:23:45.731Z,96643.41
2023-10-15T06:26:42.750Z,96645.06
2023-10-15T06:29:39.682Z,96652.06
2023-10-15T06:32:36.816Z,96656.38
2023-10-15T06:35:33.682Z,96657.41
2023-10-15T06:38:30.666Z,96656.78
2023-10-15T06:41:28.387Z,96654.00
2023-10-15T06:44:25.588Z,96662.59
2023-10-15T06:47:22.753Z,96651.78
2023-10-15T06:50:24.195Z,96649.41
2023-10-15T06:53:22.514Z,96654.06
2023-10-15T06:56:20.482Z,96656.16
2023-10-15T06:59:18.660Z,96649.19
2023-10-15T07:02:17.199Z,96645.03
2023-10-15T07:05:14.214Z,96645.16
2023-10-15T07:08:11.204Z,96634.38
2023-10-15T07:11:08.195Z,96643.97
2023-10-15T07:14:05.246Z,96636.34
2023-10-15T07:17:02.209Z,96638.09
2023-10-15T07:19:59.127Z,96633.72
2023-10-15T07:22:57.923Z,96627.41
2023-10-15T07:25:55.182Z,96629.47
2023-10-15T07:28:52.155Z,96621.34
2023-10-15T07:31:50.178Z,96627.59
2023-10-15T07:34:47.100Z,96627.53
2023-10-15T07:37:47.582Z,96616.41
2023-10-15T07:40:44.820Z,96614.78
2023-10-15T07:43:41.830Z,96616.72
2023-10-15T07:46:39.465Z,96618.06
2023-10-15T07:49:36.762Z,96619.97
2023-10-15T07:52:34.680Z,96620.84
2023-10-15T07:55:32.330Z,96617.41
2023-10-15T07:58:29.339Z,96611.59
2023-10-15T08:01:26.780Z,96612.91
2023-10-15T08:04:24.344Z,96609.91
2023-10-15T08:07:23.436Z,96601.34
2023-10-15T08:10:22.391Z,96616.66
2023-10-15T08:13:19.741Z,96609.72
2023-10-15T08:16:19.623Z,96600.50
2023-10-15T08:19:16.540Z,96607.41
2023-10-15T08:22:13.846Z,96608.59
2023-10-15T08:25:17.847Z,96606.75
2023-10-15T08:28:14.718Z,96605.13
2023-10-15T08:31:11.651Z,96604.28
2023-10-15T08:34:08.657Z,96600.25
2023-10-15T08:37:05.819Z,96602.34
2023-10-15T08:40:07.670Z,96611.66
2023-10-15T08:43:16.817Z,96613.31
2023-10-15T08:46:14.734Z,96603.91
2023-10-15T08:49:12.901Z,96598.47
2023-10-15T08:52:10.362Z,96589.38
2023-10-15T08:55:10.822Z,96594.66
2023-10-15T08:58:10.477Z,96595.63
2023-10-15T09:01:07.899Z,96591.38
2023-10-15T09:04:10.633Z,96597.47
2023-10-15T09:07:08.335Z,96596.03
2023-10-15T09:10:06.483Z,96611.19
2023-10-15T09:13:06.109Z,96608.53
2023-10-15T09:16:04.644Z,96612.41
2023-10-15T09:19:07.916Z,96602.09
2023-10-15T09:22:16.506Z,96601.59
2023-10-15T09:25:15.250Z,96612.56
2023-10-15T09:28:12.447Z,96617.41
2023-10-15T09:31:12.198Z,96613.13
2023-10-15T09:34:13.216Z,96618.22
2023-10-15T09:37:10.772Z,96623.41
2023-10-15T09:40:31.701Z,96618.69
2023-10-15T09:43:29.917Z,96612.13
2023-10-15T09:46:28.559Z,96615.22
2023-10-15T09:49:27.881Z,96617.56
2023-10-15T09:52:26.063Z,96620.66
2023-10-15T09:55:32.993Z,96612.84
2023-10-15T09:58:29.926Z,96617.56
2023-10-15T10:01:28.327Z,96603.81
2023-10-15T10:04:28.182Z,96613.75
2023-10-15T10:07:49.123Z,96608.13
2023-10-15T10:11:14.219Z,96602.19
2023-10-15T10:14:37.546Z,96604.59
2023-10-15T10:17:35.836Z,96603.75
2023-10-15T10:20:34.469Z,96595.81
2023-10-15T10:23:42.755Z,96597.38
2023-10-15T10:26:55.041Z,96607.66
2023-10-15T10:30:15.912Z,96605.00
2023-10-15T10:33:12.831Z,96614.91
2023-10-15T10:36:15.093Z,96624.00
2023-10-15T10:39:14.794Z,96624.88
2023-10-15T10:42:27.398Z,96628.78
2023-10-15T10:45:58.125Z,96634.75
2023-10-15T10:49:06.760Z,96647.28
2023-10-15T10:52:16.697Z,96651.19
2023-10-15T10:55:33.323Z,96671.03
2023-10-15T10:58:31.150Z,96672.63
2023-10-15T11:01:33.393Z,96683.19
2023-10-15T11:04:30.960Z,96674.97
2023-10-15T11:07:47.528Z,96683.25
2023-10-15T11:10:46.912Z,96674.59
2023-10-15T11:13:43.978Z,96663.84
2023-10-15T11:16:46.684Z,96652.47
2023-10-15T11:19:44.083Z,96660.50
2023-10-15T11:22:41.841Z,96650.28
2023-10-15T11:25:38.857Z,96639.59
2023-10-15T11:28:36.058Z,96645.31
2023-10-15T11:31:35.588Z,96637.44
2023-10-15T11:34:34.859Z,96646.97
2023-10-15T11:37:36.252Z,96652.47
2023-10-15T11:40:35.720Z,96647.59
2023-10-15T11:43:33.733Z,96654.25
2023-10-15T11:46:33.460Z,96650.97
2023-10-15T11:49:32.370Z,96662.56
2023-10-15T11:52:29.400Z,96653.84
2023-10-15T11:55:27.235Z,96653.84
2023-10-15T11:58:33.015Z,96655.50
2023-10-15T12:01:31.059Z,96658.59
2023-10-15T12:04:29.207Z,96646.19
2023-10-15T12:07:26.475Z,96649.25
2023-10-15T12:10:23.439Z,96644.81
2023-10-15T12:13:20.427Z,96651.84
2023-10-15T12:16:17.444Z,96639.44
2023-10-15T12:19:14.409Z,96634.88
2023-10-15T12:22:15.885Z,96634.72
2023-10-15T12:25:13.254Z,96635.50
2023-10-15T12:28:10.328Z,96642.38
2023-10-15T12:31:08.017Z,96641.25
2023-10-15T12:34:05.378Z,96647.94
2023-10-15T12:37:26.153Z,96642.66
2023-10-15T12:40:24.687Z,96654.09
2023-10-15T12:43:22.892Z,96652.25
2023-10-15T12:46:20.048Z,96656.91
2023-10-15T12:49:16.979Z,96655.69
2023-10-15T12:52:13.898Z,96643.72
2023-10-15T12:55:10.826Z,96663.97
2023-10-15T12:58:10.527Z,96662.84
2023-10-15T13:01:08.820Z,96664.13
2023-10-15T13:04:05.959Z,96654.38
2023-10-15T13:07:04.871Z,96661.88
2023-10-15T13:10:03.126Z,96658.78
2023-10-15T13:13:00.753Z,96671.84
2023-10-15T13:15:57.668Z,96658.50
2023-10-15T13:18:54.661Z,96657.91
2023-10-15T13:21:52.238Z,96660.03
2023-10-15T13:24:49.169Z,96663.03
2023-10-15T13:27:46.170Z,96667.69
2023-10-15T13:30:43.118Z,96660.81
2023-10-15T13:33:42.207Z,96665.59
2023-10-15T13:36:39.155Z,96674.50
2023-10-15T13:39:36.150Z,96684.41
2023-10-15T13:42:33.021Z,96725.50
2023-10-15T13:45:29.885Z,96740.97
2023-10-15T13:48:27.052Z,96742.91
2023-10-15T13:51:26.115Z,96734.94
2023-10-15T13:54:23.434Z,96734.13
2023-10-15T13:57:20.831Z,96729.88
2023-10-15T14:00:18.085Z,96732.59
2023-10-15T14:03:17.175Z,96738.63
2023-10-15T14:06:14.406Z,96734.16
2023-10-15T14:09:15.622Z,96729.59
2023-10-15T14:12:12.682Z,96730.41
2023-10-15T14:15:17.439Z,96732.97
2023-10-15T14:18:14.524Z,96735.22
2023-10-15T14:21:11.936Z,96726.91
2023-10-15T14:24:10.353Z,96732.94
2023-10-15T14:27:07.292Z,96751.59
2023-10-15T14:30:08.866Z,96737.91
2023-10-15T14:33:05.883Z,96750.72
2023-10-15T14:36:04.297Z,96760.94
2023-10-15T14:39:01.268Z,96767.44
2023-10-15T14:41:59.447Z,96768.09
2023-10-15T14:44:56.631Z,96763.94
2023-10-15T14:47:53.561Z,96765.97
2023-10-15T14:50:50.447Z,96773.84
2023-10-15T14:53:47.393Z,96777.13
2023-10-15T14:56:44.332Z,96783.66
2023-10-15T14:59:41.296Z,96791.50
2023-10-15T15:02:40.702Z,96813.09
2023-10-15T15:05:37.754Z,96801.34
2023-10-15T15:08:36.900Z,96803.72
2023-10-15T15:11:33.968Z,96802.16
2023-10-15T15:14:31.600Z,96805.31
2023-10-15T15:17:28.732Z,96808.28
2023-10-15T15:20:25.852Z,96815.28
2023-10-15T15:23:22.800Z,96822.31
2023-10-15T15:26:22.966Z,96822.94
2023-10-15T15:29:21.023Z,96824.56
2023-10-15T15:32:18.216Z,96822.06
2023-10-15T15:35:18.849Z,96828.78
2023-10-15T15:38:16.571Z,96834.13
2023-10-15T15:41:13.632Z,96835.47
2023-10-15T15:44:12.751Z,96841.31
2023-10-15T15:47:12.343Z,96837.31
2023-10-15T15:50:14.611Z,96841.56
2023-10-15T15:53:12.634Z,96833.06
2023-10-15T15:56:10.028Z,96841.03
2023-10-15T15:59:07.104Z,96842.41
2023-10-15T16:02:04.476Z,96843.16
2023-10-15T16:05:01.574Z,96844.25
2023-10-15T16:08:02.807Z,96850.06
2023-10-15T16:10:59.970Z,96858.00
2023-10-15T16:13:58.427Z,96857.25
2023-10-15T16:16:55.397Z,96858.34
2023-10-15T16:19:53.277Z,96867.63
2023-10-15T16:22:51.183Z,96870.03
2023-10-15T16:25:49.191Z,96874.28
2023-10-15T16:28:46.274Z,96885.44
2023-10-15T16:31:43.264Z,96897.66
2023-10-15T16:34:45.649Z,96900.56
2023-10-15T16:37:42.539Z,96903.78
2023-10-15T16:40:39.493Z,96911.00
2023-10-15T16:43:36.419Z,96922.66
2023-10-15T16:46:33.614Z,96918.38
2023-10-15T16:49:37.844Z,96928.44
2023-10-15T16:52:34.766Z,96935.16
2023-10-15T16:55:33.240Z,96933.31
2023-10-15T16:58:31.606Z,96937.03
2023-10-15T17:01:31.807Z,96937.72
2023-10-15T17:04:29.231Z,96946.31
2023-10-15T17:07:26.809Z,96943.34
2023-10-15T17:10:23.835Z,96935.63
2023-10-15T17:13:20.954Z,96941.84
2023-10-15T17:16:17.921Z,96946.25
2023-10-15T17:19:15.275Z,96959.25
2023-10-15T17:22:12.177Z,96957.44
2023-10-15T17:25:09.421Z,96966.22
2023-10-15T17:28:06.864Z,96958.69
2023-10-15T17:31:06.392Z,96970.47
2023-10-15T17:34:03.542Z,96979.22
2023-10-15T17:37:07.716Z,96983.69
2023-10-15T17:40:16.193Z,96980.69
2023-10-15T17:43:13.184Z,96981.81
2023-10-15T17:46:10.346Z,96975.56
2023-10-15T17:49:08.617Z,96974.47
2023-10-15T17:52:05.510Z,96984.03
2023-10-15T17:55:03.484Z,96987.38
2023-10-15T17:58:01.264Z,96985.44
2023-10-15T18:00:59.484Z,96989.84
2023-10-15T18:03:56.738Z,96993.22
2023-10-15T18:06:54.019Z,96993.06
2023-10-15T18:09:51.112Z,97003.78
2023-10-15T18:12:48.097Z,97011.84
2023-10-15T18:15:45.166Z,97012.91
2023-10-15T18:18:42.123Z,97020.16
2023-10-15T18:21:39.192Z,97024.78
2023-10-15T18:24:36.226Z,97019.91
2023-10-15T18:27:33.211Z,97023.63
2023-10-15T18:30:30.409Z,97025.44
2023-10-15T18:33:27.363Z,97020.59
2023-10-15T18:36:25.430Z,97024.94
2023-10-15T18:39:22.939Z,97030.59
2023-10-15T18:42:19.997Z,97027.41
2023-10-15T18:45:17.133Z,97036.06
2023-10-15T18:48:14.058Z,97031.53
2023-10-15T18:51:28.302Z,97036.06
2023-10-15T18:54:29.004Z,97032.72
2023-10-15T18:57:27.795Z,97038.06
2023-10-15T19:00:25.265Z,97037.09
2023-10-15T19:03:22.268Z,97044.00
2023-10-15T19:06:19.296Z,97052.34
2023-10-15T19:09:17.602Z,97059.53
2023-10-15T19:12:14.958Z,97067.66
2023-10-15T19:15:13.198Z,97061.75
2023-10-15T19:18:10.688Z,97071.00
2023-10-15T19:21:08.550Z,97071.00
2023-10-15T19:24:06.526Z,97069.06
2023-10-15T19:27:04.795Z,97068.75
2023-10-15T19:30:02.019Z,97073.94
2023-10-15T19:32:58.971Z,97079.81
2023-10-15T19:36:00.225Z,97084.38
2023-10-15T19:38:58.278Z,97084.31
2023-10-15T19:41:55.161Z,97095.22
2023-10-15T19:44:52.102Z,97106.03
2023-10-15T19:47:48.998Z,97107.88
2023-10-15T19:50:47.572Z,97111.22
2023-10-15T19:53:44.515Z,97110.59
2023-10-15T19:56:42.824Z,97117.47
2023-10-15T19:59:39.861Z,97121.72
2023-10-15T20:02:39.801Z,97118.94
2023-10-15T20:05:38.247Z,97114.03
2023-10-15T20:08:35.152Z,97133.50
2023-10-15T20:11:31.989Z,97118.38
2023-10-15T20:14:31.100Z,97121.09
2023-10-15T20:17:28.282Z,97124.47
2023-10-15T20:20:25.627Z,97125.38
2023-10-15T20:23:22.509Z,97122.97
2023-10-15T20:26:19.404Z,97127.22
2023-10-15T20:29:16.293Z,97129.19
2023-10-15T20:32:13.405Z,97135.41
2023-10-15T20:35:11.249Z,97131.78
2023-10-15T20:38:08.664Z,97134.69
2023-10-15T20:41:05.632Z,97136.63
2023-10-15T20:44:02.521Z,97144.56
2023-10-15T20:46:59.432Z,97142.88
2023-10-15T20:49:56.319Z,97139.91
2023-10-15T20:52:53.242Z,97134.72
2023-10-15T20:55:57.761Z,97139.09
2023-10-15T20:58:55.630Z,97146.56
2023-10-15T21:01:52.561Z,97157.28
2023-10-15T21:04:53.101Z,97152.81
2023-10-15T21:07:51.240Z,97144.44
2023-10-15T21:10:48.253Z,97150.16
2023-10-15T21:13:45.172Z,97148.16
2023-10-15T21:16:42.152Z,97146.03
2023-10-15T21:19:39.074Z,97149.22
2023-10-15T21:22:36.495Z,97140.19
2023-10-15T21:25:33.518Z,97142.56
2023-10-15T21:28:30.419Z,97150.56
2023-10-15T21:31:27.976Z,97146.66
2023-10-15T21:34:26.163Z,97146.97
2023-10-15T21:37:23.622Z,97133.66
2023-10-15T21:40:20.586Z,97135.34
2023-10-15T21:43:17.455Z,97148.34
2023-10-15T21:46:14.878Z,97138.06
2023-10-15T21:49:15.909Z,97144.81
2023-10-15T21:52:13.081Z,97148.38
2023-10-15T21:55:11.692Z,97148.94
2023-10-15T21:58:08.791Z,97155.69
2023-10-15T22:01:07.864Z,97155.22
2023-10-15T22:04:07.978Z,97153.22
2023-10-15T22:07:05.861Z,97149.41
2023-10-15T22:10:02.812Z,97151.03
2023-10-15T22:13:00.472Z,97155.06
2023-10-15T22:15:57.321Z,97156.78
2023-10-15T22:18:54.352Z,97150.22
2023-10-15T22:21:51.749Z,97147.94
2023-10-15T22:24:49.075Z,97156.06
2023-10-15T22:27:47.867Z,97159.66
2023-10-15T22:30:48.819Z,97161.94
2023-10-15T22:33:47.028Z,97162.28
2023-10-15T22:36:45.124Z,97171.47
2023-10-15T22:39:42.304Z,97154.34
2023-10-15T22:42:40.323Z,97160.66
2023-10-15T22:45:37.669Z,97156.75
2023-10-15T22:48:35.552Z,97156.88
2023-10-15T22:51:32.894Z,97159.75
2023-10-15T22:54:29.861Z,97165.13
2023-10-15T22:57:26.887Z,97158.38
2023-10-15T23:00:24.370Z,97151.84
2023-10-15T23:03:21.935Z,97151.94
2023-10-15T23:06:19.004Z,97160.88
2023-10-15T23:09:19.386Z,97162.94
2023-10-15T23:12:16.563Z,97169.03
2023-10-15T23:15:18.036Z,97166.53
2023-10-15T23:18:17.963Z,97161.94
2023-10-15T23:21:18.854Z,97160.66
2023-10-15T23:24:15.964Z,97168.34
2023-10-15T23:27:12.884Z,97161.34
2023-10-15T23:30:14.088Z,97152.75
2023-10-15T23:33:12.003Z,97147.47
2023-10-15T23:36:08.936Z,97156.41
2023-10-15T23:39:09.191Z,97149.88
2023-10-15T23:42:07.544Z,97151.59
2023-10-15T23:45:07.446Z,97147.00
2023-10-15T23:48:15.203Z,97145.63
2023-10-15T23:51:12.372Z,97140.22
2023-10-15T23:54:17.476Z,97141.28
2023-10-15T23:57:15.151Z,97140.72
